South Ryegate, VT (05069)

8:40 PM EDT on April 27, 2017 (GMT -0400)
Ryegate | | Change Station

Elev 971 ft 44.19 °N, 72.13 °W | Updated 3 seconds ago

Mostly Cloudy
Mostly Cloudy
63.1 °F
Feels Like 63.1 °F
N
5.6
Wind Variable Wind from ESE
Gusts 7.4 mph

Today
High -- | Low -- °F
--% Chance of Precip.
Yesterday
High -- | Low -- °F
Precip. -- in
Pressure 29.86 in
Visibility 10.0 miles
Clouds Overcast 3000 ft
Dew Point 58 °F
Humidity 84%
Rainfall 0.00 in
Snow Depth Not available.
5:45 AM 7:47 PM
Waxing Crescent, 3% visible
METAR KMPV 272351Z AUTO 17008KT 10SM OVC030 18/14 A2986 RMK AO2 SLP112 T01830139 10206 20183 55004
Pressure 29.86 in
Visibility 10.0 miles
Clouds Overcast 3000 ft
Dew Point 58 °F
Humidity 84%
Rainfall 0.00 in
Snow Depth Not available.
5:45 AM 7:47 PM
Waxing Crescent, 3% visible
METAR KMPV 272351Z AUTO 17008KT 10SM OVC030 18/14 A2986 RMK AO2 SLP112 T01830139 10206 20183 55004

Get Severe Weather Alerts

Thanks for signing up!

Be on the lookout for a verification email in your inbox.

You'll start receiving the daily forecast at 8 AM.

×

10-Day Weather Forecast

Almanac

Astronomy

Apr. 27, 2017 Rise Set
Actual Time
Civil Twilight
Nautical Twilight
Astronomical Twilight
Moon
Length of Visible Light
Length of Day
Tomorrow will be .
, % of the Moon is Illuminated

Today's Extremes

State Highs State Lows

Community

WunderPhotos

WunderBlog® & News

Nearby

Air Quality

  Air Quality AQ Index Pollutant
Not available.

Snow Depth

Station Depth Elevation

Earthquake Activity

City Distance Mag. Time & Date
Minimum magnitude displayed is 2.5.

Coastal Water Temperatures

Place Temperature

Stations

Nearby Weather Stations

Station Location Temp. Windchill Dew Point Humidity Wind Precip. Elev Updated Type
                   

Watches & Warnings

There are currently no watches in effect.